Time;durP1;ratioP1;P1;durP2;ratioP2;P2;SDS_P1;SDS_P2;PMS_P1;PMS_P2;Temp;Humidity;BMP_temperature;BMP_pressure;BME280_temperature;BME280_humidity;BME280_pressure;Samples;Min_cycle;Max_cycle;Signal;HPM_P1;HPM_P2
2023/07/13 00:01:59;;;;;;;2.58;0.70;;;;;;;18.53;60.76;97262.88;5065088;28;20044;-45
2023/07/13 00:04:26;;;;;;;5.57;1.00;;;;;;;18.50;60.70;97266.22;5063509;28;20043;-48
2023/07/13 00:06:53;;;;;;;5.40;1.00;;;;;;;18.46;60.90;97267.94;5062203;28;20429;-49
2023/07/13 00:09:21;;;;;;;4.18;0.90;;;;;;;18.45;61.11;97269.91;5065071;28;20459;-45
2023/07/13 00:11:53;;;;;;;2.55;0.93;;;;;;;18.50;60.70;97259.94;5065043;28;20048;-48
2023/07/13 00:14:19;;;;;;;;;;;;;;;18.45;60.72;97264.41;5065069;28;20036;-47
2023/07/13 00:16:47;;;;;;;2.20;0.80;;;;;;;18.45;60.86;97264.41;5064802;28;19927;-46
2023/07/13 00:19:14;;;;;;;3.92;1.23;;;;;;;18.45;60.67;97247.13;5065056;28;20040;-45
2023/07/13 00:21:41;;;;;;;6.03;1.10;;;;;;;18.43;60.55;97247.44;5064096;28;20127;-49
2023/07/13 00:24:12;;;;;;;3.58;0.88;;;;;;;18.35;60.98;97258.34;5060269;28;20530;-50
2023/07/13 00:26:39;;;;;;;;;;;;;;;18.29;61.17;97260.34;5064814;28;20045;-46
2023/07/13 00:29:08;;;;;;;2.28;0.90;;;;;;;18.24;60.48;97257.72;5064614;28;19929;-48
2023/07/13 00:31:35;;;;;;;2.03;0.75;;;;;;;18.30;60.44;97251.84;5064411;28;20040;-46
2023/07/13 00:34:03;;;;;;;2.88;0.85;;;;;;;18.36;60.25;97247.06;5062590;28;20044;-45
2023/07/13 00:36:30;;;;;;;3.97;1.40;;;;;;;18.24;60.88;97247.56;5062108;28;20037;-43
2023/07/13 00:38:57;;;;;;;4.10;1.08;;;;;;;18.14;61.07;97247.78;5062768;28;20071;-48
2023/07/13 00:41:24;;;;;;;2.15;0.98;;;;;;;18.07;61.17;97242.69;5066077;28;20110;-46
2023/07/13 00:43:50;;;;;;;3.70;0.90;;;;;;;18.07;61.28;97235.25;5062273;28;20049;-48
2023/07/13 00:46:24;;;;;;;4.28;0.98;;;;;;;18.08;61.08;97236.09;5064306;28;20040;-50
2023/07/13 00:48:53;;;;;;;4.63;1.30;;;;;;;18.10;61.41;97238.56;5063830;28;20058;-47
2023/07/13 00:51:27;;;;;;;2.75;0.93;;;;;;;18.01;61.55;97235.66;5064181;28;20082;-48
2023/07/13 00:53:58;;;;;;;2.10;0.82;;;;;;;17.94;61.88;97241.53;5062205;28;20141;-47
2023/07/13 00:56:25;;;;;;;2.50;0.98;;;;;;;18.01;62.04;97236.50;5064060;28;20076;-48
2023/07/13 00:58:53;;;;;;;4.60;1.00;;;;;;;18.10;61.26;97244.84;5063916;28;20499;-46
2023/07/13 01:01:19;;;;;;;3.75;0.82;;;;;;;18.11;60.99;97242.91;5063843;28;20043;-47
2023/07/13 01:03:46;;;;;;;6.20;1.10;;;;;;;18.14;60.74;97243.09;5066933;28;20032;-47
2023/07/13 01:06:14;;;;;;;5.13;1.02;;;;;;;18.00;61.26;97242.25;5062695;28;20028;-49
2023/07/13 01:08:41;;;;;;;3.47;1.00;;;;;;;18.01;61.67;97243.88;5059913;28;20120;-44
2023/07/13 01:11:07;;;;;;;4.32;1.15;;;;;;;17.97;61.21;97245.59;5063468;28;20044;-43
2023/07/13 01:13:34;;;;;;;5.93;1.00;;;;;;;17.82;62.01;97244.78;5063784;28;20128;-46
2023/07/13 01:16:12;;;;;;;7.03;1.55;;;;;;;17.78;61.85;97246.50;5062150;28;20044;-47
2023/07/13 01:18:39;;;;;;;4.38;0.82;;;;;;;17.54;62.92;97248.28;5062414;28;20410;-46
2023/07/13 01:21:05;;;;;;;3.17;0.82;;;;;;;17.59;62.68;97246.59;5063875;28;20040;-50
2023/07/13 01:23:32;;;;;;;3.30;0.82;;;;;;;17.43;63.33;97249.56;5062130;28;20051;-46
2023/07/13 01:25:59;;;;;;;3.92;0.90;;;;;;;17.34;63.60;97246.72;5063299;28;20040;-49
2023/07/13 01:28:27;;;;;;;3.53;0.98;;;;;;;17.41;63.57;97247.16;5062630;28;20049;-48
2023/07/13 01:30:56;;;;;;;6.38;2.35;;;;;;;17.37;63.08;97239.84;5052332;28;20055;-51
2023/07/13 01:33:23;;;;;;;3.28;0.93;;;;;;;17.24;64.22;97244.16;5062903;28;20411;-47
2023/07/13 01:35:50;;;;;;;2.95;1.02;;;;;;;17.13;64.61;97249.81;5063026;28;20044;-47
2023/07/13 01:38:19;;;;;;;3.95;1.15;;;;;;;17.14;64.22;97254.16;5062904;28;20120;-48
2023/07/13 01:40:45;;;;;;;6.63;1.10;;;;;;;17.03;64.58;97248.00;5063064;28;20120;-43
2023/07/13 01:43:13;;;;;;;4.25;1.60;;;;;;;16.96;64.92;97247.59;5061747;28;20036;-45
2023/07/13 01:45:39;;;;;;;2.88;0.90;;;;;;;16.98;65.28;97244.53;5063111;28;20115;-42
2023/07/13 01:48:08;;;;;;;1.92;1.00;;;;;;;16.94;65.32;97238.03;5063421;28;20039;-48
2023/07/13 01:50:36;;;;;;;3.72;0.95;;;;;;;16.90;65.28;97244.13;5062689;28;20468;-48
2023/07/13 01:53:03;;;;;;;4.15;1.02;;;;;;;16.94;65.15;97238.84;5061585;28;20680;-46
2023/07/13 01:55:30;;;;;;;2.97;1.08;;;;;;;16.94;65.72;97238.84;5063270;28;20064;-46
2023/07/13 01:57:56;;;;;;;2.70;1.23;;;;;;;16.98;65.17;97244.53;5061727;28;20046;-48
2023/07/13 02:00:24;;;;;;;7.40;1.13;;;;;;;16.83;65.60;97240.94;5061366;28;20044;-46
2023/07/13 02:02:51;;;;;;;4.93;1.27;;;;;;;16.78;66.01;97241.00;5061301;28;20067;-46
2023/07/13 02:05:18;;;;;;;5.25;1.00;;;;;;;16.83;65.65;97245.56;5062341;28;20584;-47
2023/07/13 02:07:46;;;;;;;2.58;0.88;;;;;;;16.68;66.13;97247.44;5061410;28;20436;-48
2023/07/13 02:10:13;;;;;;;2.45;1.02;;;;;;;16.70;65.92;97244.41;5061417;28;20036;-45
2023/07/13 02:12:41;;;;;;;4.72;1.20;;;;;;;16.70;65.91;97247.94;5061995;28;20078;-48
2023/07/13 02:15:09;;;;;;;2.83;0.82;;;;;;;16.58;66.46;97240.19;5062622;28;20120;-48
2023/07/13 02:17:36;;;;;;;2.92;1.10;;;;;;;16.51;67.46;97247.91;5058558;28;20111;-50
2023/07/13 02:20:04;;;;;;;4.75;1.40;;;;;;;16.46;67.02;97246.09;5065426;28;20479;-45
2023/07/13 02:22:31;;;;;;;7.53;1.30;;;;;;;16.34;68.50;97242.97;5058332;28;20048;-49
2023/07/13 02:24:58;;;;;;;3.17;0.90;;;;;;;16.21;68.83;97250.78;5061566;28;20032;-49
2023/07/13 02:27:25;;;;;;;2.65;0.90;;;;;;;16.23;68.64;97255.94;5060740;28;20036;-46
2023/07/13 02:29:51;;;;;;;5.07;1.30;;;;;;;16.26;68.01;97255.38;5060665;28;20527;-46
2023/07/13 02:32:19;;;;;;;5.45;0.93;;;;;;;16.31;68.34;97259.94;5058749;28;20033;-47
2023/07/13 02:34:46;;;;;;;4.00;1.10;;;;;;;16.24;68.97;97260.28;5060956;28;20051;-45
2023/07/13 02:37:12;;;;;;;3.75;1.17;;;;;;;16.14;71.06;97263.16;5061554;28;20058;-45
2023/07/13 02:39:39;;;;;;;5.22;1.17;;;;;;;16.02;70.50;97266.28;5062078;28;20072;-48
2023/07/13 02:42:06;;;;;;;2.70;0.93;;;;;;;16.05;69.17;97261.06;5057315;28;20131;-46
2023/07/13 02:44:33;;;;;;;4.97;1.30;;;;;;;15.90;71.90;97266.66;5061663;28;20037;-47
2023/07/13 02:46:59;;;;;;;3.78;1.08;;;;;;;15.71;73.75;97270.13;5063672;28;20051;-47
2023/07/13 02:49:26;;;;;;;2.17;0.95;;;;;;;15.45;75.48;97271.16;5064463;28;20119;-43
2023/07/13 02:51:53;;;;;;;4.00;1.30;;;;;;;15.30;76.81;97274.84;5065290;28;20045;-45
2023/07/13 02:54:19;;;;;;;4.60;1.30;;;;;;;15.19;77.93;97273.31;5064063;28;20713;-45
2023/07/13 02:56:46;;;;;;;3.85;1.23;;;;;;;15.00;78.03;97276.69;5065927;28;20395;-46
2023/07/13 02:59:13;;;;;;;3.80;1.20;;;;;;;14.98;78.41;97276.19;5065447;28;20408;-48
2023/07/13 03:01:41;;;;;;;4.22;1.48;;;;;;;14.92;78.67;97280.84;5065427;28;20036;-47
2023/07/13 03:04:07;;;;;;;2.28;1.10;;;;;;;14.90;79.54;97283.06;5064027;28;20044;-46
2023/07/13 03:06:35;;;;;;;5.43;1.27;;;;;;;14.79;79.11;97278.75;5060829;28;20515;-47
2023/07/13 03:09:03;;;;;;;4.30;1.38;;;;;;;14.68;81.44;97284.22;5065310;28;20407;-45
2023/07/13 03:11:32;;;;;;;3.15;1.30;;;;;;;14.68;80.62;97283.44;5061671;28;20045;-48
2023/07/13 03:14:22;;;;;;;10.63;1.90;;;;;;;14.54;81.03;97280.50;5063429;28;20047;-48
2023/07/13 03:16:49;;;;;;;3.97;1.48;;;;;;;14.13;83.57;97287.75;5063140;28;20070;-49
2023/07/13 03:19:16;;;;;;;4.90;1.52;;;;;;;14.01;85.43;97289.97;5064909;28;20089;-49
2023/07/13 03:21:47;;;;;;;4.03;1.30;;;;;;;14.10;84.81;97291.03;5063624;28;20044;-48
2023/07/13 03:24:14;;;;;;;3.17;1.33;;;;;;;14.10;83.95;97292.91;5065482;28;20048;-48
2023/07/13 03:26:41;;;;;;;3.00;1.40;;;;;;;14.32;82.92;97287.13;5064454;28;20040;-49
2023/07/13 03:29:07;;;;;;;3.42;1.38;;;;;;;14.29;82.65;97293.13;5065968;28;20045;-47
2023/07/13 03:31:36;;;;;;;2.65;1.30;;;;;;;14.17;83.58;97296.16;5061120;28;20123;-50
2023/07/13 03:34:03;;;;;;;4.57;2.05;;;;;;;14.22;83.84;97304.31;5064440;28;20071;-48
2023/07/13 03:36:30;;;;;;;1.73;1.02;;;;;;;14.15;85.08;97307.34;5063991;28;20503;-44
2023/07/13 03:39:02;;;;;;;4.65;1.48;;;;;;;14.17;84.02;97316.06;5063994;28;20044;-48
2023/07/13 03:41:47;;;;;;;8.27;1.98;;;;;;;14.15;84.46;97315.50;5062105;28;20505;-48
2023/07/13 03:44:18;;;;;;;2.47;1.20;;;;;;;14.17;85.30;97321.50;5061858;28;20071;-45
2023/07/13 03:46:48;;;;;;;5.07;1.38;;;;;;;14.01;85.67;97320.72;5061605;28;20122;-48
2023/07/13 03:49:15;;;;;;;4.35;1.48;;;;;;;14.06;86.69;97333.50;5064198;28;20070;-45
2023/07/13 03:51:42;;;;;;;4.53;1.52;;;;;;;14.11;86.32;97338.13;5063103;28;20040;-44
2023/07/13 03:54:08;;;;;;;3.72;1.40;;;;;;;14.12;85.36;97334.31;5063176;28;20128;-44
2023/07/13 03:56:36;;;;;;;5.38;1.48;;;;;;;14.19;85.81;97337.53;5063558;28;20040;-49
2023/07/13 03:59:04;;;;;;;6.47;2.20;;;;;;;14.19;86.38;97345.72;5063855;28;20040;-49
2023/07/13 04:01:31;;;;;;;3.22;1.35;;;;;;;14.22;87.06;97336.19;5063966;28;20098;-46
2023/07/13 04:03:57;;;;;;;3.50;1.60;;;;;;;14.33;85.41;97339.72;5063006;28;20082;-47
2023/07/13 04:06:30;;;;;;;4.13;1.30;;;;;;;14.33;85.92;97340.50;5068102;28;20411;-48
2023/07/13 04:08:59;;;;;;;4.85;1.60;;;;;;;14.16;86.23;97346.28;5065177;28;20047;-49
2023/07/13 04:11:28;;;;;;;4.80;1.30;;;;;;;14.10;87.10;97350.09;5064594;28;20033;-48
2023/07/13 04:13:55;;;;;;;3.70;1.42;;;;;;;14.01;88.32;97342.47;5064356;28;20084;-46
2023/07/13 04:16:22;;;;;;;4.65;1.50;;;;;;;13.91;88.44;97346.06;5064034;28;20040;-46
2023/07/13 04:18:49;;;;;;;3.28;1.63;;;;;;;13.87;89.09;97350.41;5064196;28;20450;-47
2023/07/13 04:21:16;;;;;;;5.72;1.80;;;;;;;13.84;89.45;97347.41;5068599;28;20051;-47
2023/07/13 04:23:43;;;;;;;4.22;1.70;;;;;;;13.89;88.66;97342.78;5060712;28;20047;-48
2023/07/13 04:26:09;;;;;;;5.75;2.45;;;;;;;14.01;88.80;97344.41;5064899;28;20551;-47
2023/07/13 04:28:37;;;;;;;4.75;1.42;;;;;;;14.06;88.16;97341.66;5064856;28;20064;-45
2023/07/13 04:31:04;;;;;;;5.40;2.40;;;;;;;13.94;89.00;97341.16;5065376;28;20040;-47
2023/07/13 04:33:31;;;;;;;4.20;1.98;;;;;;;14.04;88.62;97343.84;5064163;28;20051;-58
2023/07/13 04:35:59;;;;;;;9.48;1.88;;;;;;;14.16;87.63;97357.97;5063227;28;20089;-56
2023/07/13 04:38:29;;;;;;;3.17;1.55;;;;;;;14.35;86.98;97349.22;5063906;28;20072;-58
2023/07/13 04:40:58;;;;;;;3.65;1.58;;;;;;;14.38;86.75;97348.66;5062710;28;20047;-58
2023/07/13 04:43:25;;;;;;;4.07;1.77;;;;;;;14.48;85.98;97355.97;5059867;28;20083;-58
2023/07/13 04:45:53;;;;;;;6.10;1.35;;;;;;;14.49;85.60;97356.81;5062682;28;20568;-59
2023/07/13 04:48:20;;;;;;;6.10;1.70;;;;;;;14.51;86.40;97354.59;5063081;28;20084;-56
2023/07/13 04:50:47;;;;;;;7.00;1.65;;;;;;;14.34;87.48;97358.47;5062499;28;20136;-57
2023/07/13 04:53:14;;;;;;;5.13;2.05;;;;;;;14.16;89.72;97360.69;5062834;28;20047;-57
2023/07/13 04:55:40;;;;;;;6.28;1.50;;;;;;;14.09;89.78;97362.06;5063127;28;20051;-58
2023/07/13 04:58:07;;;;;;;5.82;1.63;;;;;;;14.10;89.88;97367.25;5063165;28;20045;-54
2023/07/13 05:00:34;;;;;;;4.20;1.50;;;;;;;14.24;88.48;97361.22;5061171;28;20044;-57
2023/07/13 05:03:03;;;;;;;4.35;1.90;;;;;;;14.49;86.91;97356.81;5066533;28;20046;-59
2023/07/13 05:05:30;;;;;;;2.85;1.52;;;;;;;14.54;86.93;97359.50;5064678;28;20104;-59
2023/07/13 05:07:56;;;;;;;6.95;1.70;;;;;;;14.74;84.75;97360.53;5066540;28;20064;-59
2023/07/13 05:10:23;;;;;;;6.07;1.50;;;;;;;14.85;83.83;97355.88;5067199;28;20407;-54
2023/07/13 05:12:50;;;;;;;2.33;1.38;;;;;;;14.89;84.21;97352.28;5063763;28;20154;-56
2023/07/13 05:15:21;;;;;;;4.50;1.50;;;;;;;14.97;82.73;97361.81;5062264;28;20504;-57
2023/07/13 05:17:48;;;;;;;4.93;1.53;;;;;;;15.12;82.06;97366.34;5063581;28;20037;-55
2023/07/13 05:20:16;;;;;;;5.32;1.48;;;;;;;15.19;82.15;97366.84;5064720;28;20071;-58
2023/07/13 05:22:43;;;;;;;4.60;1.45;;;;;;;15.25;81.90;97364.91;5063915;28;20062;-55
2023/07/13 05:25:10;;;;;;;4.20;1.40;;;;;;;15.40;80.45;97374.88;5063294;28;20048;-56
2023/07/13 05:27:37;;;;;;;5.13;1.63;;;;;;;15.59;80.11;97377.75;5065165;28;20040;-58
2023/07/13 05:30:04;;;;;;;4.47;1.63;;;;;;;15.66;79.48;97366.50;5063490;28;20044;-55
2023/07/13 05:32:31;;;;;;;4.93;1.35;;;;;;;15.64;79.91;97376.91;5062984;28;20050;-57
2023/07/13 05:34:57;;;;;;;8.70;1.92;;;;;;;15.71;79.98;97374.66;5062616;28;20129;-49
2023/07/13 05:37:24;;;;;;;3.97;1.70;;;;;;;15.63;79.89;97377.19;5064283;28;20032;-49
2023/07/13 05:39:51;;;;;;;5.30;1.70;;;;;;;15.72;80.13;97370.00;5065657;28;20060;-45
2023/07/13 05:42:19;;;;;;;3.60;1.60;;;;;;;15.84;79.07;97369.63;5063982;28;20056;-44
2023/07/13 05:44:46;;;;;;;9.13;1.88;;;;;;;15.85;80.16;97363.91;5060896;28;20045;-47
2023/07/13 05:47:14;;;;;;;6.65;1.77;;;;;;;15.97;80.54;97376.38;5062872;28;20052;-49
2023/07/13 05:49:41;;;;;;;3.80;1.58;;;;;;;16.09;80.09;97378.72;5064313;28;20041;-47
2023/07/13 05:52:08;;;;;;;4.55;1.52;;;;;;;16.33;79.02;97380.69;5042726;28;20040;-51
2023/07/13 05:54:35;;;;;;;3.13;1.30;;;;;;;16.53;76.25;97376.91;5065584;28;20051;-50
2023/07/13 05:57:02;;;;;;;4.18;1.48;;;;;;;16.70;75.30;97381.88;5062630;28;20496;-50
2023/07/13 05:59:28;;;;;;;3.58;1.20;;;;;;;16.87;74.75;97389.63;5064769;28;20113;-46
2023/07/13 06:01:55;;;;;;;3.58;1.20;;;;;;;17.07;70.43;97387.78;5062264;28;20044;-45
2023/07/13 06:04:22;;;;;;;6.20;1.73;;;;;;;17.26;69.85;97395.16;5066771;28;20119;-47
2023/07/13 06:06:48;;;;;;;4.40;1.30;;;;;;;17.31;67.58;97392.34;5067858;28;20101;-42
2023/07/13 06:09:15;;;;;;;6.82;1.80;;;;;;;17.43;66.26;97389.16;5062560;28;20036;-47
2023/07/13 06:11:42;;;;;;;3.72;1.50;;;;;;;17.40;64.99;97392.50;5060201;28;20040;-45
2023/07/13 06:14:08;;;;;;;6.00;1.33;;;;;;;17.41;65.71;97394.97;5060325;28;20511;-50
2023/07/13 06:16:35;;;;;;;3.75;1.25;;;;;;;17.49;66.53;97398.13;5054486;28;20037;-46
2023/07/13 06:19:02;;;;;;;4.28;1.20;;;;;;;17.68;65.81;97403.56;5058927;28;20040;-46
2023/07/13 06:21:28;;;;;;;5.07;1.27;;;;;;;17.82;66.03;97406.38;5061673;28;20428;-46
2023/07/13 06:23:55;;;;;;;6.20;1.20;;;;;;;17.97;61.73;97407.22;5065873;28;20082;-43
2023/07/13 06:26:22;;;;;;;6.97;2.53;;;;;;;18.11;60.92;97412.78;5048735;28;20047;-44
2023/07/13 06:28:49;;;;;;;5.15;1.40;;;;;;;18.30;61.14;97419.03;5063349;28;20041;-43
2023/07/13 06:31:15;;;;;;;3.72;1.20;;;;;;;18.26;57.50;97414.44;5065838;28;20040;-44
2023/07/13 06:33:43;;;;;;;2.45;1.02;;;;;;;18.48;57.21;97427.47;5035198;28;20048;-47
2023/07/13 06:36:10;;;;;;;3.20;1.00;;;;;;;18.47;55.90;97420.38;5058158;28;20041;-48
2023/07/13 06:38:37;;;;;;;6.75;1.30;;;;;;;18.55;56.26;97422.41;5066039;28;20037;-49
2023/07/13 06:41:07;;;;;;;5.47;1.23;;;;;;;18.43;56.45;97422.09;5065521;28;20041;-48
2023/07/13 06:43:34;;;;;;;5.20;1.33;;;;;;;18.53;57.06;97432.84;5065547;28;20052;-44
2023/07/13 06:46:01;;;;;;;4.57;1.15;;;;;;;18.36;55.76;97432.63;5064974;28;20392;-46
2023/07/13 06:48:28;;;;;;;4.22;1.13;;;;;;;18.41;55.74;97440.75;5066415;28;20047;-45
2023/07/13 06:50:55;;;;;;;3.25;1.05;;;;;;;18.30;56.14;97440.94;5064982;28;20044;-48
2023/07/13 06:53:22;;;;;;;3.55;1.10;;;;;;;18.26;55.89;97439.91;5065240;28;20464;-49
2023/07/13 06:55:49;;;;;;;3.00;1.00;;;;;;;18.37;56.35;97446.03;5064879;28;20064;-44
2023/07/13 06:58:18;;;;;;;2.75;0.90;;;;;;;18.45;54.54;97442.59;5063184;28;20045;-49
2023/07/13 07:00:45;;;;;;;3.35;1.05;;;;;;;18.58;54.87;97440.97;5064721;28;20464;-42
2023/07/13 07:03:11;;;;;;;4.10;1.02;;;;;;;18.78;57.24;97441.72;5065132;28;20412;-42
2023/07/13 07:05:38;;;;;;;3.08;1.10;;;;;;;19.05;57.04;97444.75;5069266;28;20064;-42
2023/07/13 07:08:05;;;;;;;5.03;1.20;;;;;;;19.20;57.17;97443.66;5046538;28;20048;-42
2023/07/13 07:10:33;;;;;;;5.30;1.33;;;;;;;19.10;57.05;97448.22;5065880;28;20119;-40
2023/07/13 07:12:59;;;;;;;3.53;1.40;;;;;;;19.08;56.66;97444.16;5065172;28;20052;-42
2023/07/13 07:15:26;;;;;;;3.05;0.95;;;;;;;19.07;57.73;97439.78;5065350;28;20652;-43
2023/07/13 07:17:53;;;;;;;3.72;1.10;;;;;;;19.07;56.74;97454.34;5064372;28;20090;-41
2023/07/13 07:20:20;;;;;;;3.83;1.17;;;;;;;19.19;56.18;97447.50;5064885;28;20071;-45
2023/07/13 07:22:47;;;;;;;4.63;1.40;;;;;;;19.26;57.25;97442.41;5064171;28;20519;-42
2023/07/13 07:25:14;;;;;;;3.00;1.25;;;;;;;19.11;56.54;97454.53;5064685;28;20048;-48
2023/07/13 07:27:40;;;;;;;4.07;1.55;;;;;;;19.14;55.79;97453.94;5065393;28;20063;-43
2023/07/13 07:30:11;;;;;;;2.50;0.90;;;;;;;19.19;56.41;97448.31;5064680;28;20173;-40
2023/07/13 07:32:41;;;;;;;7.10;1.27;;;;;;;19.24;55.30;97450.16;5060541;28;20202;-41
2023/07/13 07:35:23;;;;;;;3.42;1.10;;;;;;;19.32;54.08;97446.66;5063260;28;20064;-43
2023/07/13 07:37:49;;;;;;;6.00;1.42;;;;;;;19.49;55.29;97447.94;5063152;28;20416;-42
2023/07/13 07:40:18;;;;;;;2.25;0.80;;;;;;;19.61;54.44;97445.47;5065068;28;20628;-46
2023/07/13 07:42:47;;;;;;;4.47;1.13;;;;;;;19.48;52.67;97449.91;5058223;28;20033;-44
2023/07/13 07:45:14;;;;;;;3.00;1.20;;;;;;;19.43;49.19;97455.50;5043602;28;20051;-47
2023/07/13 07:47:41;;;;;;;3.88;1.00;;;;;;;19.56;49.27;97451.09;5061658;28;20047;-45
2023/07/13 07:50:08;;;;;;;3.25;0.90;;;;;;;19.71;47.04;97457.34;5064952;28;20045;-43
2023/07/13 07:52:35;;;;;;;6.22;0.90;;;;;;;19.76;48.71;97446.25;5064715;28;20057;-43
2023/07/13 07:55:03;;;;;;;6.60;1.00;;;;;;;19.70;47.32;97444.75;5063802;28;20483;-42
2023/07/13 07:57:33;;;;;;;2.05;0.65;;;;;;;19.91;48.09;97433.28;5064433;28;20514;-43
2023/07/13 08:00:20;;;;;;;2.20;0.70;;;;;;;19.97;48.27;97438.31;5062807;28;20623;-41
2023/07/13 08:02:49;;;;;;;2.47;0.80;;;;;;;20.07;49.02;97442.78;5064417;28;20028;-40
2023/07/13 08:05:19;;;;;;;2.13;0.77;;;;;;;20.30;48.00;97448.25;5042915;28;20052;-44
2023/07/13 08:08:05;;;;;;;7.70;1.27;;;;;;;20.32;47.16;97451.53;5063692;28;20054;-45
2023/07/13 08:10:31;;;;;;;3.78;0.90;;;;;;;20.50;46.99;97457.13;5065269;28;20044;-44
2023/07/13 08:12:58;;;;;;;3.67;0.80;;;;;;;20.54;47.08;97450.66;5064466;28;20045;-40
2023/07/13 08:15:27;;;;;;;2.30;1.00;;;;;;;20.48;45.48;97462.94;5025648;28;20045;-41
2023/07/13 08:17:54;;;;;;;6.22;1.10;;;;;;;20.45;45.23;97462.75;5053572;28;20045;-40
2023/07/13 08:20:23;;;;;;;3.88;0.82;;;;;;;20.60;44.65;97447.78;5064033;28;20048;-42
2023/07/13 08:22:50;;;;;;;2.92;1.05;;;;;;;20.79;46.19;97458.56;5063129;28;20528;-42
2023/07/13 08:25:16;;;;;;;3.53;0.90;;;;;;;20.75;45.36;97457.56;5063683;28;20040;-45
2023/07/13 08:27:43;;;;;;;3.13;1.20;;;;;;;20.92;44.99;97457.66;5068618;28;20044;-46
2023/07/13 08:30:09;;;;;;;3.65;1.00;;;;;;;21.09;43.89;97455.28;5063839;28;20439;-42
2023/07/13 08:32:37;;;;;;;4.32;0.95;;;;;;;21.14;44.24;97453.19;5060007;28;20071;-41
2023/07/13 08:35:05;;;;;;;3.53;0.95;;;;;;;21.11;42.98;97458.53;5063446;28;20648;-42
2023/07/13 08:37:31;;;;;;;2.58;0.93;;;;;;;21.02;42.64;97455.75;5063601;28;20051;-41
2023/07/13 08:39:58;;;;;;;4.68;0.90;;;;;;;21.11;42.90;97448.31;5059792;28;20045;-43
2023/07/13 08:42:41;;;;;;;3.22;0.93;;;;;;;20.96;42.78;97465.28;5063991;28;20513;-45
2023/07/13 08:45:14;;;;;;;4.00;0.85;;;;;;;21.17;43.51;97458.06;5060881;28;20549;-41
2023/07/13 08:47:48;;;;;;;5.45;0.93;;;;;;;21.20;43.63;97450.28;5067330;28;20032;-46
2023/07/13 08:50:19;;;;;;;4.00;0.93;;;;;;;21.20;42.87;97462.13;5060487;28;20123;-40
2023/07/13 08:52:46;;;;;;;4.32;1.02;;;;;;;21.10;43.67;97449.47;5062863;28;20075;-46
2023/07/13 08:55:17;;;;;;;3.58;0.90;;;;;;;21.28;43.90;97468.78;5063095;28;20507;-46
2023/07/13 08:57:48;;;;;;;3.40;1.13;;;;;;;21.26;43.74;97460.03;5065565;28;20048;-46
2023/07/13 09:00:15;;;;;;;5.97;0.90;;;;;;;21.56;43.89;97451.97;5063430;28;20566;-45
2023/07/13 09:02:56;;;;;;;3.75;1.00;;;;;;;21.75;43.21;97464.66;5063626;28;20064;-42
2023/07/13 09:05:31;;;;;;;2.47;0.80;;;;;;;21.90;43.66;97455.91;5060842;28;20048;-41
2023/07/13 09:08:06;;;;;;;3.17;0.90;;;;;;;22.06;42.92;97463.66;5063119;28;20582;-42
2023/07/13 09:10:44;;;;;;;6.43;1.15;;;;;;;22.18;41.87;97463.00;5063262;28;20119;-45
2023/07/13 09:13:32;;;;;;;3.78;0.70;;;;;;;22.21;41.58;97456.81;5060058;28;20047;-43
2023/07/13 09:15:59;;;;;;;3.35;1.30;;;;;;;22.06;41.99;97464.47;5059981;28;20044;-43
2023/07/13 09:18:33;;;;;;;4.30;1.30;;;;;;;21.94;41.62;97465.16;5063143;28;20111;-42
2023/07/13 09:21:05;;;;;;;4.55;0.90;;;;;;;22.06;42.34;97469.19;5061034;28;20712;-41
2023/07/13 09:23:31;;;;;;;2.75;0.80;;;;;;;22.07;41.31;97476.31;5062422;28;20072;-45
2023/07/13 09:26:22;;;;;;;4.65;0.80;;;;;;;22.06;41.36;97470.00;5061864;28;20105;-42
2023/07/13 09:28:59;;;;;;;3.10;0.85;;;;;;;22.17;42.07;97464.97;5059660;28;20040;-43
2023/07/13 09:31:38;;;;;;;6.50;1.13;;;;;;;21.92;41.63;97463.81;5062645;28;20044;-44
2023/07/13 09:34:11;;;;;;;2.65;0.82;;;;;;;21.91;40.97;97460.28;5062001;28;20052;-44
2023/07/13 09:36:37;;;;;;;;;;;;;;;22.01;41.63;97461.91;5059259;28;20064;-44
2023/07/13 09:39:07;;;;;;;3.42;1.02;;;;;;;22.17;41.25;97462.19;5061856;28;19920;-42
2023/07/13 09:41:52;;;;;;;2.80;0.90;;;;;;;22.18;41.57;97460.22;5062593;28;20574;-43
2023/07/13 09:44:33;;;;;;;5.07;0.90;;;;;;;22.39;41.13;97462.31;5059666;28;20040;-43
2023/07/13 09:46:59;;;;;;;4.63;1.83;;;;;;;22.45;40.20;97452.75;5062492;28;20082;-43
2023/07/13 09:49:29;;;;;;;4.32;1.23;;;;;;;22.59;39.79;97452.56;5066294;28;20040;-43
2023/07/13 09:52:01;;;;;;;3.08;0.73;;;;;;;22.78;40.47;97445.84;5061233;28;20040;-43
2023/07/13 09:54:28;;;;;;;4.47;1.48;;;;;;;23.07;39.38;97444.25;5061827;28;20640;-42
2023/07/13 09:56:56;;;;;;;5.47;1.33;;;;;;;22.68;39.89;97458.03;5061845;28;20040;-46
2023/07/13 09:59:27;;;;;;;4.80;1.00;;;;;;;22.60;40.09;97467.97;5062703;28;20052;-41
2023/07/13 10:01:53;;;;;;;3.50;1.53;;;;;;;22.38;40.41;97452.41;5059424;28;20852;-40
2023/07/13 10:04:32;;;;;;;8.15;1.13;;;;;;;22.46;41.20;97457.09;5059113;28;20044;-44
2023/07/13 10:07:07;;;;;;;3.03;0.93;;;;;;;22.26;41.70;97453.09;5061697;28;20487;-42
2023/07/13 10:10:00;;;;;;;5.63;0.93;;;;;;;22.57;41.67;97455.66;5059192;28;20718;-42
2023/07/13 10:12:29;;;;;;;4.15;1.30;;;;;;;22.63;41.07;97453.53;5061765;28;20036;-41
2023/07/13 10:14:59;;;;;;;2.50;1.05;;;;;;;22.95;40.14;97440.22;5061328;28;20045;-40
2023/07/13 10:17:47;;;;;;;4.68;1.00;;;;;;;22.82;40.34;97450.34;5059018;28;20040;-40
2023/07/13 10:20:14;;;;;;;4.63;1.15;;;;;;;23.08;40.72;97448.63;5062056;28;20048;-41
2023/07/13 10:22:57;;;;;;;5.05;1.10;;;;;;;23.11;39.69;97461.75;5062237;28;20241;-41
2023/07/13 10:25:26;;;;;;;6.57;1.35;;;;;;;22.99;41.84;97455.00;5062144;28;20040;-42
2023/07/13 10:28:01;;;;;;;3.22;0.90;;;;;;;22.84;39.84;97463.81;5063154;28;20033;-56
2023/07/13 10:30:32;;;;;;;3.75;1.10;;;;;;;22.68;39.78;97455.28;5062667;28;20066;-57
2023/07/13 10:33:02;;;;;;;3.55;1.10;;;;;;;22.69;39.78;97460.47;5061503;28;20051;-57
2023/07/13 10:35:30;;;;;;;4.32;1.25;;;;;;;22.70;39.96;97453.00;5063366;28;20734;-58
2023/07/13 10:38:06;;;;;;;3.63;1.05;;;;;;;22.67;39.41;97457.22;5061412;28;20036;-54
2023/07/13 10:40:55;;;;;;;4.18;1.17;;;;;;;22.80;40.14;97451.81;5060870;28;20784;-56
2023/07/13 10:43:28;;;;;;;3.53;0.95;;;;;;;22.97;40.71;97460.03;5061426;28;20040;-58
2023/07/13 10:45:55;;;;;;;2.47;0.90;;;;;;;22.87;40.24;97460.41;5061380;28;20032;-57
2023/07/13 10:48:23;;;;;;;3.00;1.02;;;;;;;23.16;39.39;97458.81;5057502;28;20102;-58
2023/07/13 10:50:53;;;;;;;3.83;1.20;;;;;;;23.50;39.74;97461.72;5061197;28;20515;-56
2023/07/13 10:53:32;;;;;;;3.50;1.08;;;;;;;23.37;39.10;97463.59;5060632;28;20044;-57
2023/07/13 10:56:02;;;;;;;4.82;1.13;;;;;;;22.91;38.95;97455.84;5061979;28;20043;-54
2023/07/13 10:58:33;;;;;;;3.45;1.15;;;;;;;23.17;39.64;97477.00;5062443;28;20072;-57
2023/07/13 11:01:00;;;;;;;3.40;1.17;;;;;;;22.97;39.80;97457.25;5061733;28;20058;-60
2023/07/13 11:03:29;;;;;;;2.15;0.73;;;;;;;22.87;40.31;97452.13;5061529;28;20041;-58
2023/07/13 11:06:11;;;;;;;4.40;1.23;;;;;;;22.67;40.35;97448.94;5060931;28;20120;-59
2023/07/13 11:08:52;;;;;;;5.10;1.10;;;;;;;22.82;39.89;97442.06;5065047;28;20540;-58
2023/07/13 11:11:25;;;;;;;3.97;0.93;;;;;;;22.92;37.47;97440.88;5064373;28;20041;-55
2023/07/13 11:13:51;;;;;;;4.40;1.20;;;;;;;22.98;37.85;97441.50;5064192;28;20418;-58
2023/07/13 11:16:18;;;;;;;1.10;0.77;;;;;;;23.08;38.33;97432.03;5065023;28;20059;-56
2023/07/13 11:18:47;;;;;;;3.47;0.90;;;;;;;23.48;37.81;97434.41;5065866;28;20063;-59
2023/07/13 11:21:22;;;;;;;4.78;1.13;;;;;;;23.73;36.60;97440.06;5062154;28;20106;-58
2023/07/13 11:24:12;;;;;;;6.75;1.00;;;;;;;24.18;35.75;97437.78;5064505;28;20470;-57
2023/07/13 11:26:46;;;;;;;1.50;0.73;;;;;;;24.24;34.78;97432.81;5063349;28;20629;-59
2023/07/13 11:29:31;;;;;;;;;;;;;;;24.50;36.16;97435.31;5062154;28;20032;-57
2023/07/13 11:32:20;;;;;;;3.00;0.95;;;;;;;24.23;35.86;97423.72;5068236;28;19927;-55
2023/07/13 11:34:47;;;;;;;3.75;0.90;;;;;;;24.40;35.71;97417.19;5061500;28;20052;-56
2023/07/13 11:37:17;;;;;;;3.55;1.10;;;;;;;24.59;35.01;97426.09;5061499;28;20052;-57
2023/07/13 11:39:46;;;;;;;3.83;1.10;;;;;;;24.50;34.81;97432.53;5065747;28;20047;-56
2023/07/13 11:42:16;;;;;;;3.05;1.08;;;;;;;24.60;35.58;97428.53;5060805;28;20174;-56
2023/07/13 11:44:46;;;;;;;2.08;0.90;;;;;;;24.37;34.91;97430.91;5065363;28;20044;-56